createdAt,value
2023-01-18T00:00:37.967Z,92.93
2023-01-18T00:03:05.240Z,93.05
2023-01-18T00:05:33.625Z,92.99
2023-01-18T00:08:00.278Z,92.59
2023-01-18T00:10:26.861Z,91.31
2023-01-18T00:12:53.452Z,90.91
2023-01-18T00:15:19.904Z,90.52
2023-01-18T00:17:51.756Z,90.61
2023-01-18T00:20:21.129Z,91.80
2023-01-18T00:22:48.093Z,92.00
2023-01-18T00:25:15.040Z,92.29
2023-01-18T00:27:50.174Z,92.32
2023-01-18T00:30:18.746Z,91.67
2023-01-18T00:32:45.447Z,91.38
2023-01-18T00:35:13.046Z,91.15
2023-01-18T00:37:39.879Z,91.13
2023-01-18T00:40:07.510Z,90.77
2023-01-18T00:42:52.688Z,90.54
2023-01-18T00:45:19.249Z,90.51
2023-01-18T00:47:45.880Z,90.57
2023-01-18T00:50:12.398Z,90.58
2023-01-18T00:52:42.225Z,90.18
2023-01-18T00:55:09.239Z,90.65
2023-01-18T00:57:35.655Z,90.50
2023-01-18T01:00:02.158Z,90.52
2023-01-18T01:02:28.683Z,90.75
2023-01-18T01:05:13.635Z,90.66
2023-01-18T01:07:40.095Z,90.91
2023-01-18T01:10:09.075Z,90.56
2023-01-18T01:12:57.523Z,93.28
2023-01-18T01:15:42.485Z,93.65
2023-01-18T01:18:29.430Z,93.97
2023-01-18T01:21:14.238Z,93.35
2023-01-18T01:23:59.815Z,93.29
2023-01-18T01:26:26.302Z,93.34
2023-01-18T01:28:53.226Z,93.35
2023-01-18T01:31:20.756Z,93.95
2023-01-18T01:33:50.646Z,93.46
2023-01-18T01:36:19.992Z,92.86
2023-01-18T01:38:46.698Z,92.57
2023-01-18T01:41:27.990Z,92.32
2023-01-18T01:43:55.499Z,91.74
2023-01-18T01:46:40.273Z,91.37
2023-01-18T01:49:12.495Z,91.25
2023-01-18T01:51:44.700Z,91.22
2023-01-18T01:54:34.959Z,91.65
2023-01-18T01:57:21.289Z,91.05
2023-01-18T02:00:01.215Z,91.02
2023-01-18T02:02:30.632Z,91.10
2023-01-18T02:04:59.155Z,91.38
2023-01-18T02:07:26.359Z,91.48
2023-01-18T02:09:53.541Z,91.41
2023-01-18T02:12:20.378Z,91.65
2023-01-18T02:14:47.611Z,91.36
2023-01-18T02:17:16.708Z,91.47
2023-01-18T02:20:07.055Z,91.49
2023-01-18T02:22:42.252Z,91.22
2023-01-18T02:25:46.186Z,91.63
2023-01-18T02:28:18.034Z,91.47
2023-01-18T02:30:56.081Z,91.86
2023-01-18T02:33:40.575Z,92.61
2023-01-18T02:36:07.156Z,93.08
2023-01-18T02:38:44.450Z,93.05
2023-01-18T02:41:21.283Z,92.71
2023-01-18T02:44:09.940Z,92.18
2023-01-18T02:46:38.927Z,92.15
2023-01-18T02:49:11.952Z,92.82
2023-01-18T02:51:39.278Z,92.10
2023-01-18T02:54:09.214Z,91.99
2023-01-18T02:57:04.352Z,92.62
2023-01-18T02:59:39.887Z,92.98
2023-01-18T03:02:16.975Z,94.51
2023-01-18T03:04:54.163Z,95.47
2023-01-18T03:07:35.235Z,95.15
2023-01-18T03:10:05.283Z,94.80
2023-01-18T03:12:46.389Z,94.47
2023-01-18T03:15:21.824Z,93.98
2023-01-18T03:17:53.202Z,93.69
2023-01-18T03:20:27.612Z,94.35
2023-01-18T03:23:25.663Z,93.66
2023-01-18T03:25:56.653Z,92.70
2023-01-18T03:28:53.654Z,92.72
2023-01-18T03:31:47.179Z,91.86
2023-01-18T03:34:39.728Z,91.94
2023-01-18T03:37:16.555Z,91.89
2023-01-18T03:39:46.977Z,91.80
2023-01-18T03:42:20.012Z,91.93
2023-01-18T03:44:49.895Z,93.26
2023-01-18T03:47:16.829Z,92.72
2023-01-18T03:49:43.585Z,92.49
2023-01-18T03:52:16.286Z,93.18
2023-01-18T03:54:59.536Z,93.02
2023-01-18T03:57:31.575Z,92.90
2023-01-18T03:59:58.315Z,92.90
2023-01-18T04:02:27.199Z,93.06
2023-01-18T04:04:57.698Z,92.86
2023-01-18T04:07:25.970Z,93.82
2023-01-18T04:09:52.467Z,93.03
2023-01-18T04:12:19.039Z,92.23
2023-01-18T04:14:45.517Z,91.96
2023-01-18T04:17:12.000Z,92.00
2023-01-18T04:19:40.449Z,91.74
2023-01-18T04:22:09.784Z,92.35
2023-01-18T04:24:36.492Z,93.28
2023-01-18T04:27:03.354Z,93.90
2023-01-18T04:29:30.388Z,93.81
2023-01-18T04:31:56.886Z,94.97
2023-01-18T04:34:23.871Z,95.62
2023-01-18T04:36:51.211Z,96.17
2023-01-18T04:39:17.982Z,96.88
2023-01-18T04:41:44.729Z,97.28
2023-01-18T04:44:11.332Z,97.00
2023-01-18T04:46:40.375Z,96.70
2023-01-18T04:49:12.030Z,96.81
2023-01-18T04:51:39.173Z,96.38
2023-01-18T04:54:05.691Z,96.48
2023-01-18T04:56:32.190Z,96.23
2023-01-18T04:58:58.625Z,96.14
2023-01-18T05:01:25.194Z,95.70
2023-01-18T05:03:54.611Z,95.45
2023-01-18T05:06:21.554Z,95.37
2023-01-18T05:08:48.593Z,95.89
2023-01-18T05:11:17.004Z,95.64
2023-01-18T05:13:44.401Z,95.81
2023-01-18T05:16:21.896Z,95.76
2023-01-18T05:18:48.294Z,96.26
2023-01-18T05:21:15.259Z,96.19
2023-01-18T05:23:42.259Z,95.37
2023-01-18T05:26:15.180Z,94.77
2023-01-18T05:28:42.384Z,94.68
2023-01-18T05:31:09.075Z,94.88
2023-01-18T05:33:35.808Z,94.81
2023-01-18T05:36:02.287Z,94.55
2023-01-18T05:38:28.844Z,93.92
2023-01-18T05:40:55.345Z,93.77
2023-01-18T05:43:24.203Z,93.56
2023-01-18T05:45:51.026Z,93.20
2023-01-18T05:48:18.061Z,92.54
2023-01-18T05:50:46.133Z,92.33
2023-01-18T05:53:15.244Z,93.60
2023-01-18T05:55:42.119Z,94.36
2023-01-18T05:58:08.904Z,94.36
2023-01-18T06:00:35.940Z,94.68
2023-01-18T06:03:02.513Z,94.78
2023-01-18T06:05:29.195Z,94.58
2023-01-18T06:07:55.666Z,94.29
2023-01-18T06:10:22.163Z,94.34
2023-01-18T06:15:36.137Z,94.03
2023-01-18T06:18:02.878Z,94.13
2023-01-18T06:20:30.526Z,93.85
2023-01-18T06:22:58.387Z,93.90
2023-01-18T06:25:25.363Z,93.91
2023-01-18T06:27:52.092Z,94.18
2023-01-18T06:30:19.059Z,94.28
2023-01-18T06:32:45.553Z,94.04
2023-01-18T06:35:12.019Z,93.93
2023-01-18T06:37:38.527Z,93.96
2023-01-18T06:40:05.772Z,93.81
2023-01-18T06:42:33.074Z,93.81
2023-01-18T06:44:59.689Z,93.61
2023-01-18T06:47:26.207Z,93.40
2023-01-18T06:49:52.709Z,93.39
2023-01-18T06:52:19.172Z,93.45
2023-01-18T06:54:45.597Z,93.66
2023-01-18T06:57:12.567Z,93.31
2023-01-18T06:59:39.859Z,93.12
2023-01-18T07:02:06.984Z,93.41
2023-01-18T07:04:35.678Z,93.54
2023-01-18T07:07:02.309Z,93.09
2023-01-18T07:09:28.873Z,92.91
2023-01-18T07:11:55.298Z,92.85
2023-01-18T07:14:21.943Z,92.57
2023-01-18T07:16:48.428Z,92.26
2023-01-18T07:19:16.288Z,92.49
2023-01-18T07:21:42.771Z,92.73
2023-01-18T07:24:09.302Z,92.99
2023-01-18T07:26:35.806Z,92.69
2023-01-18T07:29:02.766Z,93.05
2023-01-18T07:31:30.174Z,92.94
2023-01-18T07:33:56.773Z,93.04
2023-01-18T07:36:23.347Z,92.83
2023-01-18T07:38:49.874Z,92.75
2023-01-18T07:41:17.740Z,92.93
2023-01-18T07:43:44.814Z,92.68
2023-01-18T07:46:16.910Z,92.95
2023-01-18T07:48:44.595Z,93.31
2023-01-18T07:51:11.094Z,93.37
2023-01-18T07:53:38.781Z,93.41
2023-01-18T07:56:12.635Z,93.38
2023-01-18T07:58:40.108Z,93.46
2023-01-18T08:01:09.948Z,93.63
2023-01-18T08:03:37.211Z,93.45
2023-01-18T08:06:05.569Z,93.89
2023-01-18T08:08:32.097Z,93.83
2023-01-18T08:11:00.178Z,93.46
2023-01-18T08:13:27.303Z,93.55
2023-01-18T08:15:54.425Z,93.23
2023-01-18T08:18:21.268Z,93.25
2023-01-18T08:20:49.061Z,93.19
2023-01-18T08:23:16.842Z,92.91
2023-01-18T08:25:44.891Z,93.12
2023-01-18T08:28:11.837Z,92.96
2023-01-18T08:30:41.937Z,92.54
2023-01-18T08:33:08.788Z,92.69
2023-01-18T08:35:41.412Z,92.62
2023-01-18T08:38:08.114Z,92.66
2023-01-18T08:40:34.611Z,92.69
2023-01-18T08:43:02.787Z,92.26
2023-01-18T08:45:29.972Z,92.38
2023-01-18T08:47:58.445Z,92.17
2023-01-18T08:50:25.163Z,92.06
2023-01-18T08:52:52.588Z,91.77
2023-01-18T08:55:20.028Z,91.75
2023-01-18T08:57:46.521Z,91.78
2023-01-18T09:00:13.497Z,91.61
2023-01-18T09:02:39.989Z,91.42
2023-01-18T09:05:06.673Z,91.23
2023-01-18T09:07:33.146Z,91.02
2023-01-18T09:09:59.625Z,91.02
2023-01-18T09:12:26.512Z,91.08
2023-01-18T09:14:52.999Z,90.67
2023-01-18T09:17:21.194Z,90.12
2023-01-18T09:19:47.713Z,89.95
2023-01-18T09:22:14.270Z,89.68
2023-01-18T09:24:41.604Z,89.31
2023-01-18T09:27:08.208Z,88.72
2023-01-18T09:29:34.685Z,88.33
2023-01-18T09:32:01.198Z,87.98
2023-01-18T09:34:27.701Z,88.03
2023-01-18T09:36:54.286Z,87.38
2023-01-18T09:39:21.791Z,86.61
2023-01-18T09:41:56.877Z,86.51
2023-01-18T09:44:26.388Z,86.82
2023-01-18T09:46:57.206Z,87.50
2023-01-18T09:49:32.657Z,88.33
2023-01-18T09:52:19.774Z,87.85
2023-01-18T09:55:04.650Z,88.40
2023-01-18T09:58:03.226Z,88.80
2023-01-18T10:00:33.284Z,88.39
2023-01-18T10:03:08.943Z,88.62
2023-01-18T10:05:40.391Z,88.65
2023-01-18T10:08:27.748Z,88.42
2023-01-18T10:11:04.514Z,89.16
2023-01-18T10:13:50.808Z,88.77
2023-01-18T10:16:18.408Z,88.64
2023-01-18T10:18:48.369Z,88.94
2023-01-18T10:21:26.742Z,88.54
2023-01-18T10:24:04.439Z,88.82
2023-01-18T10:26:34.957Z,88.86
2023-01-18T10:29:15.727Z,88.79
2023-01-18T10:32:09.104Z,88.06
2023-01-18T10:34:40.980Z,88.34
2023-01-18T10:37:16.874Z,88.01
2023-01-18T10:39:58.044Z,88.56
2023-01-18T10:42:36.782Z,87.78
2023-01-18T10:45:03.765Z,87.36
2023-01-18T10:47:30.324Z,87.77
2023-01-18T10:50:00.081Z,87.85
2023-01-18T10:52:29.202Z,87.89
2023-01-18T10:54:59.556Z,87.73
2023-01-18T10:57:29.811Z,86.40
2023-01-18T10:59:57.096Z,85.64
2023-01-18T11:02:29.546Z,84.73
2023-01-18T11:05:04.548Z,84.44
2023-01-18T11:07:31.061Z,84.34
2023-01-18T11:10:01.669Z,83.93
2023-01-18T11:12:42.434Z,83.38
2023-01-18T11:15:14.749Z,83.23
2023-01-18T11:17:50.395Z,83.30
2023-01-18T11:20:20.170Z,82.43
2023-01-18T11:23:06.231Z,81.91
2023-01-18T11:26:01.127Z,81.80
2023-01-18T11:28:31.050Z,81.42
2023-01-18T11:31:08.654Z,82.02
2023-01-18T11:33:40.302Z,81.66
2023-01-18T11:36:07.324Z,81.24
2023-01-18T11:38:34.869Z,81.16
2023-01-18T11:41:23.326Z,80.94
2023-01-18T11:44:13.879Z,79.85
2023-01-18T11:46:45.272Z,79.02
2023-01-18T11:49:27.425Z,78.86
2023-01-18T11:52:02.161Z,77.73
2023-01-18T11:54:40.947Z,78.04
2023-01-18T11:57:12.359Z,78.04
2023-01-18T11:59:45.604Z,79.09
2023-01-18T12:02:31.093Z,77.08
2023-01-18T12:05:22.439Z,75.05
2023-01-18T12:08:38.368Z,72.44
2023-01-18T12:11:32.116Z,70.50
2023-01-18T12:14:14.289Z,70.16
2023-01-18T12:17:14.755Z,69.71
2023-01-18T12:20:23.078Z,69.22
2023-01-18T12:23:02.838Z,68.37
2023-01-18T12:26:12.317Z,68.23
2023-01-18T12:29:15.961Z,67.89
2023-01-18T12:32:07.373Z,68.26
2023-01-18T12:34:41.797Z,67.92
2023-01-18T12:37:26.704Z,67.98
2023-01-18T12:40:21.221Z,67.46
2023-01-18T12:42:56.702Z,66.97
2023-01-18T12:45:39.012Z,68.59
2023-01-18T12:48:36.206Z,66.40
2023-01-18T12:51:18.369Z,65.22
2023-01-18T12:53:50.672Z,64.01
2023-01-18T12:56:24.668Z,64.02
2023-01-18T12:58:57.728Z,64.46
2023-01-18T13:01:28.717Z,64.77
2023-01-18T13:04:00.451Z,66.01
2023-01-18T13:06:27.369Z,64.15
2023-01-18T13:08:59.850Z,64.77
2023-01-18T13:11:38.860Z,65.25
2023-01-18T13:14:17.420Z,65.11
2023-01-18T13:16:46.855Z,65.91
2023-01-18T13:19:23.262Z,66.53
2023-01-18T13:22:06.286Z,66.47
2023-01-18T13:24:41.972Z,66.25
2023-01-18T13:27:11.053Z,66.29
2023-01-18T13:29:38.094Z,66.60
2023-01-18T13:32:24.736Z,66.88
2023-01-18T13:35:19.432Z,66.10
2023-01-18T13:37:59.228Z,64.87
2023-01-18T13:40:42.676Z,64.61
2023-01-18T13:43:28.086Z,64.72
2023-01-18T13:46:18.931Z,65.34
2023-01-18T13:48:45.435Z,65.76
2023-01-18T13:51:39.234Z,65.40
2023-01-18T13:54:07.420Z,65.91
2023-01-18T13:56:36.705Z,66.10
2023-01-18T13:59:12.204Z,66.14
2023-01-18T14:01:43.173Z,66.23
2023-01-18T14:04:30.765Z,66.75
2023-01-18T14:07:04.125Z,66.48
2023-01-18T14:09:46.625Z,66.45
2023-01-18T14:12:14.822Z,66.43
2023-01-18T14:14:57.420Z,65.80
2023-01-18T14:17:25.517Z,66.50
2023-01-18T14:20:08.306Z,66.27
2023-01-18T14:22:40.869Z,65.49
2023-01-18T14:25:19.159Z,65.66
2023-01-18T14:27:52.297Z,66.13
2023-01-18T14:30:26.269Z,65.58
2023-01-18T14:33:11.464Z,65.52
2023-01-18T14:35:38.962Z,65.91
2023-01-18T14:38:18.499Z,65.87
2023-01-18T14:40:51.460Z,65.15
2023-01-18T14:43:34.071Z,65.57
2023-01-18T14:46:17.528Z,65.66
2023-01-18T14:48:54.269Z,66.05
2023-01-18T14:51:23.512Z,66.14
2023-01-18T14:53:59.192Z,66.28
2023-01-18T14:56:28.091Z,66.21
2023-01-18T14:58:57.770Z,66.30
2023-01-18T15:01:39.239Z,67.45
2023-01-18T15:04:18.375Z,67.76
2023-01-18T15:06:55.475Z,67.62
2023-01-18T15:09:22.992Z,68.37
2023-01-18T15:11:52.956Z,68.59
2023-01-18T15:14:23.698Z,69.01
2023-01-18T15:16:55.032Z,69.15
2023-01-18T15:19:33.424Z,69.20
2023-01-18T15:22:01.768Z,68.31
2023-01-18T15:24:31.408Z,68.73
2023-01-18T15:27:03.217Z,68.23
2023-01-18T15:29:35.154Z,68.69
2023-01-18T15:32:12.437Z,68.60
2023-01-18T15:34:43.895Z,68.45
2023-01-18T15:37:16.464Z,68.53
2023-01-18T15:40:00.549Z,68.97
2023-01-18T15:42:33.154Z,69.39
2023-01-18T15:45:00.388Z,69.61
2023-01-18T15:48:18.636Z,69.76
2023-01-18T15:50:52.095Z,70.42
2023-01-18T15:53:29.919Z,70.45
2023-01-18T15:56:18.143Z,71.19
2023-01-18T15:58:47.086Z,71.57
2023-01-18T16:01:13.640Z,71.85
2023-01-18T16:04:04.098Z,71.89
2023-01-18T16:06:37.071Z,71.44
2023-01-18T16:09:20.688Z,71.11
2023-01-18T16:11:51.994Z,70.64
2023-01-18T16:14:52.278Z,70.55
2023-01-18T16:17:23.611Z,70.50
2023-01-18T16:19:53.736Z,71.31
2023-01-18T16:22:26.521Z,71.60
2023-01-18T16:25:16.745Z,72.26
2023-01-18T16:27:52.767Z,72.56
2023-01-18T16:30:27.634Z,72.22
2023-01-18T16:32:54.150Z,72.41
2023-01-18T16:35:22.659Z,72.26
2023-01-18T16:37:50.056Z,72.32
2023-01-18T16:40:23.220Z,72.93
2023-01-18T16:43:05.940Z,72.54
2023-01-18T16:45:37.294Z,72.99
2023-01-18T16:48:04.927Z,72.86
2023-01-18T16:50:32.457Z,73.63
2023-01-18T16:52:59.000Z,73.44
2023-01-18T16:55:25.665Z,73.88
2023-01-18T16:57:52.402Z,74.45
2023-01-18T17:00:51.440Z,74.90
2023-01-18T17:03:18.043Z,74.96
2023-01-18T17:05:44.531Z,75.15
2023-01-18T17:08:14.627Z,75.48
2023-01-18T17:10:43.578Z,75.64
2023-01-18T17:13:10.223Z,76.12
2023-01-18T17:15:40.775Z,76.37
2023-01-18T17:18:13.384Z,76.70
2023-01-18T17:20:39.939Z,77.16
2023-01-18T17:23:06.546Z,77.23
2023-01-18T17:25:33.180Z,77.72
2023-01-18T17:28:00.868Z,77.70
2023-01-18T17:30:28.597Z,78.21
2023-01-18T17:32:55.234Z,78.07
2023-01-18T17:35:23.979Z,77.86
2023-01-18T17:37:57.371Z,78.14
2023-01-18T17:40:39.930Z,78.39
2023-01-18T17:43:10.547Z,78.25
2023-01-18T17:45:36.972Z,78.19
2023-01-18T17:48:03.515Z,77.86
2023-01-18T17:50:30.076Z,78.21
2023-01-18T17:52:56.811Z,78.31
2023-01-18T17:55:27.469Z,78.11
2023-01-18T17:57:57.128Z,78.23
2023-01-18T18:00:23.943Z,77.99
2023-01-18T18:02:56.919Z,78.29
2023-01-18T18:05:24.400Z,78.00
2023-01-18T18:07:50.943Z,78.00
2023-01-18T18:10:17.641Z,78.44
2023-01-18T18:12:44.261Z,78.41
2023-01-18T18:15:10.918Z,78.29
2023-01-18T18:17:37.459Z,78.12
2023-01-18T18:20:04.477Z,78.60
2023-01-18T18:22:31.770Z,78.95
2023-01-18T18:24:58.302Z,78.93
2023-01-18T18:27:28.652Z,79.01
2023-01-18T18:30:00.809Z,78.96
2023-01-18T18:32:27.513Z,78.79
2023-01-18T18:34:54.134Z,78.67
2023-01-18T18:37:20.649Z,79.23
2023-01-18T18:39:47.112Z,78.77
2023-01-18T18:42:13.591Z,79.21
2023-01-18T18:44:40.046Z,79.26
2023-01-18T18:47:07.604Z,79.44
2023-01-18T18:49:34.163Z,79.76
2023-01-18T18:52:01.430Z,79.66
2023-01-18T18:54:27.926Z,79.80
2023-01-18T18:56:54.438Z,79.91
2023-01-18T18:59:20.909Z,79.91
2023-01-18T19:01:51.710Z,79.81
2023-01-18T19:04:18.611Z,80.41
2023-01-18T19:06:45.119Z,79.98
2023-01-18T19:09:11.616Z,80.69
2023-01-18T19:11:41.593Z,80.23
2023-01-18T19:14:10.927Z,80.30
2023-01-18T19:16:37.525Z,80.39
2023-01-18T19:19:04.032Z,80.68
2023-01-18T19:21:30.545Z,80.70
2023-01-18T19:23:57.109Z,79.97
2023-01-18T19:26:23.579Z,80.32
2023-01-18T19:28:50.056Z,80.23
2023-01-18T19:31:16.620Z,80.04
2023-01-18T19:33:43.313Z,80.14
2023-01-18T19:36:15.381Z,79.89
2023-01-18T19:38:45.986Z,79.85
2023-01-18T19:41:14.757Z,80.19
2023-01-18T19:43:42.754Z,80.07
2023-01-18T19:46:11.303Z,80.20
2023-01-18T19:48:39.243Z,80.27
2023-01-18T19:51:20.275Z,80.37
2023-01-18T19:53:47.540Z,80.52
2023-01-18T19:56:14.039Z,80.59
2023-01-18T19:58:43.296Z,80.92
2023-01-18T20:01:14.843Z,80.83
2023-01-18T20:03:47.969Z,81.14
2023-01-18T20:06:18.389Z,81.23
2023-01-18T20:08:45.690Z,81.02
2023-01-18T20:11:14.681Z,81.07
2023-01-18T20:13:44.011Z,81.04
2023-01-18T20:16:10.753Z,80.98
2023-01-18T20:18:38.200Z,80.86
2023-01-18T20:21:14.088Z,81.14
2023-01-18T20:23:42.907Z,81.30
2023-01-18T20:26:10.558Z,81.14
2023-01-18T20:28:37.901Z,81.34
2023-01-18T20:31:05.966Z,81.36
2023-01-18T20:33:33.465Z,81.68
2023-01-18T20:36:01.681Z,81.76
2023-01-18T20:38:28.438Z,82.10
2023-01-18T20:40:55.393Z,81.81
2023-01-18T20:43:21.933Z,82.10
2023-01-18T20:45:48.438Z,82.41
2023-01-18T20:48:14.999Z,83.07
2023-01-18T20:50:41.478Z,82.83
2023-01-18T20:53:08.129Z,82.97
2023-01-18T20:55:36.298Z,82.96
2023-01-18T20:58:02.937Z,83.08
2023-01-18T21:00:29.493Z,83.47
2023-01-18T21:02:56.123Z,83.70
2023-01-18T21:05:22.675Z,83.67
2023-01-18T21:07:49.275Z,83.91
2023-01-18T21:10:16.136Z,83.94
2023-01-18T21:12:42.612Z,83.96
2023-01-18T21:15:09.446Z,83.97
2023-01-18T21:17:36.747Z,84.11
2023-01-18T21:20:03.701Z,84.00
2023-01-18T21:22:30.187Z,84.41
2023-01-18T21:24:58.028Z,84.32
2023-01-18T21:27:27.560Z,84.40
2023-01-18T21:29:54.296Z,84.38
2023-01-18T21:32:22.664Z,84.45
2023-01-18T21:34:49.258Z,84.49
2023-01-18T21:37:15.714Z,85.00
2023-01-18T21:39:42.247Z,84.89
2023-01-18T21:42:29.665Z,85.02
2023-01-18T21:45:14.742Z,85.22
2023-01-18T21:47:41.338Z,84.89
2023-01-18T21:50:28.697Z,85.37
2023-01-18T21:53:13.567Z,85.50
2023-01-18T21:55:40.401Z,85.36
2023-01-18T21:58:25.893Z,85.80
2023-01-18T22:00:52.511Z,85.87
2023-01-18T22:03:19.266Z,85.73
2023-01-18T22:05:45.764Z,86.02
2023-01-18T22:08:12.330Z,86.46
2023-01-18T22:10:38.793Z,86.76
2023-01-18T22:13:05.468Z,86.74
2023-01-18T22:15:31.966Z,86.66
2023-01-18T22:17:58.619Z,87.00
2023-01-18T22:20:25.365Z,87.00
2023-01-18T22:22:51.914Z,86.85
2023-01-18T22:25:18.353Z,86.93
2023-01-18T22:27:44.830Z,87.29
2023-01-18T22:30:12.053Z,87.07
2023-01-18T22:32:38.575Z,87.42
2023-01-18T22:35:05.350Z,87.39
2023-01-18T22:37:31.987Z,87.22
2023-01-18T22:39:58.491Z,87.35
2023-01-18T22:42:25.294Z,87.58
2023-01-18T22:44:51.786Z,87.43
2023-01-18T22:47:18.410Z,87.53
2023-01-18T22:49:44.991Z,88.00
2023-01-18T22:52:11.450Z,87.68
2023-01-18T22:54:37.923Z,88.14
2023-01-18T22:57:04.531Z,88.14
2023-01-18T22:59:31.046Z,87.81
2023-01-18T23:01:58.154Z,88.09
2023-01-18T23:04:24.731Z,88.49
2023-01-18T23:06:54.533Z,88.17
2023-01-18T23:09:21.307Z,88.24
2023-01-18T23:11:47.988Z,88.52
2023-01-18T23:14:33.094Z,88.21
2023-01-18T23:17:17.900Z,89.14
2023-01-18T23:19:44.345Z,88.59
2023-01-18T23:22:11.165Z,88.98
2023-01-18T23:24:38.598Z,88.86
2023-01-18T23:27:06.969Z,88.75
2023-01-18T23:29:33.579Z,88.71
2023-01-18T23:32:00.144Z,89.24
2023-01-18T23:34:26.740Z,89.04
2023-01-18T23:36:53.642Z,89.11
2023-01-18T23:39:38.745Z,89.23
2023-01-18T23:42:24.082Z,89.28
2023-01-18T23:45:08.810Z,88.94
2023-01-18T23:47:54.120Z,89.55
2023-01-18T23:50:40.018Z,88.92
2023-01-18T23:53:29.918Z,89.29
2023-01-18T23:55:56.304Z,89.12
2023-01-18T23:58:22.725Z,88.98
